sensor_id;sensor_type;location;lat;lon;timestamp;temperature;humidity
20520;DHT22;53432;51.952;14.740;2022-08-21T00:00:25;20.80;99.90
20520;DHT22;53432;51.952;14.740;2022-08-21T00:02:57;20.70;99.90
20520;DHT22;53432;51.952;14.740;2022-08-21T00:05:26;20.70;99.90
20520;DHT22;53432;51.952;14.740;2022-08-21T00:07:54;20.70;99.90
20520;DHT22;53432;51.952;14.740;2022-08-21T00:10:22;20.70;99.90
20520;DHT22;53432;51.952;14.740;2022-08-21T00:12:49;20.60;99.90
20520;DHT22;53432;51.952;14.740;2022-08-21T00:15:21;20.50;99.90
20520;DHT22;53432;51.952;14.740;2022-08-21T00:17:49;20.50;99.90
20520;DHT22;53432;51.952;14.740;2022-08-21T00:20:17;20.50;99.90
20520;DHT22;53432;51.952;14.740;2022-08-21T00:22:49;20.60;99.90
20520;DHT22;53432;51.952;14.740;2022-08-21T00:25:18;20.50;99.90
20520;DHT22;53432;51.952;14.740;2022-08-21T00:27:46;20.60;99.90
20520;DHT22;53432;51.952;14.740;2022-08-21T00:30:16;20.60;99.90
20520;DHT22;53432;51.952;14.740;2022-08-21T00:32:44;20.60;99.90
20520;DHT22;53432;51.952;14.740;2022-08-21T00:35:14;20.60;99.90
20520;DHT22;53432;51.952;14.740;2022-08-21T00:37:43;20.60;99.90
20520;DHT22;53432;51.952;14.740;2022-08-21T00:40:14;20.60;99.90
20520;DHT22;53432;51.952;14.740;2022-08-21T00:42:43;20.50;99.90
20520;DHT22;53432;51.952;14.740;2022-08-21T00:45:11;20.50;99.90
20520;DHT22;53432;51.952;14.740;2022-08-21T00:47:39;20.50;99.90
20520;DHT22;53432;51.952;14.740;2022-08-21T00:50:10;20.50;99.90
20520;DHT22;53432;51.952;14.740;2022-08-21T00:52:38;20.60;99.90
20520;DHT22;53432;51.952;14.740;2022-08-21T00:55:08;20.60;99.90
20520;DHT22;53432;51.952;14.740;2022-08-21T00:57:40;20.50;99.90
20520;DHT22;53432;51.952;14.740;2022-08-21T01:00:12;20.50;99.90
20520;DHT22;53432;51.952;14.740;2022-08-21T01:02:40;20.50;99.90
20520;DHT22;53432;51.952;14.740;2022-08-21T01:05:09;20.50;99.90
20520;DHT22;53432;51.952;14.740;2022-08-21T01:07:36;20.50;99.90
20520;DHT22;53432;51.952;14.740;2022-08-21T01:10:06;20.50;99.90
20520;DHT22;53432;51.952;14.740;2022-08-21T01:12:34;20.50;99.90
20520;DHT22;53432;51.952;14.740;2022-08-21T01:15:06;20.50;99.90
20520;DHT22;53432;51.952;14.740;2022-08-21T01:17:34;20.50;99.90
20520;DHT22;53432;51.952;14.740;2022-08-21T01:20:06;20.50;99.90
20520;DHT22;53432;51.952;14.740;2022-08-21T01:22:35;20.40;99.90
20520;DHT22;53432;51.952;14.740;2022-08-21T01:25:03;20.40;99.90
20520;DHT22;53432;51.952;14.740;2022-08-21T01:27:31;20.50;99.90
20520;DHT22;53432;51.952;14.740;2022-08-21T01:30:04;20.40;99.90
20520;DHT22;53432;51.952;14.740;2022-08-21T01:32:35;20.40;99.90
20520;DHT22;53432;51.952;14.740;2022-08-21T01:35:03;20.40;99.90
20520;DHT22;53432;51.952;14.740;2022-08-21T01:37:31;20.40;99.90
20520;DHT22;53432;51.952;14.740;2022-08-21T01:40:00;20.40;99.90
20520;DHT22;53432;51.952;14.740;2022-08-21T01:42:27;20.40;99.90
20520;DHT22;53432;51.952;14.740;2022-08-21T01:44:54;20.40;99.90
20520;DHT22;53432;51.952;14.740;2022-08-21T01:47:22;20.40;99.90
20520;DHT22;53432;51.952;14.740;2022-08-21T01:49:50;20.30;99.90
20520;DHT22;53432;51.952;14.740;2022-08-21T01:52:17;20.30;99.90
20520;DHT22;53432;51.952;14.740;2022-08-21T01:54:45;20.30;99.90
20520;DHT22;53432;51.952;14.740;2022-08-21T01:57:14;20.40;99.90
20520;DHT22;53432;51.952;14.740;2022-08-21T01:59:42;20.40;99.90
20520;DHT22;53432;51.952;14.740;2022-08-21T02:02:09;20.40;99.90
20520;DHT22;53432;51.952;14.740;2022-08-21T02:04:36;20.40;99.90
20520;DHT22;53432;51.952;14.740;2022-08-21T02:07:04;20.40;99.90
20520;DHT22;53432;51.952;14.740;2022-08-21T02:09:31;20.40;99.90
20520;DHT22;53432;51.952;14.740;2022-08-21T02:12:00;20.40;99.90
20520;DHT22;53432;51.952;14.740;2022-08-21T02:14:28;20.30;99.90
20520;DHT22;53432;51.952;14.740;2022-08-21T02:16:56;20.40;99.90
20520;DHT22;53432;51.952;14.740;2022-08-21T02:19:23;20.30;99.90
20520;DHT22;53432;51.952;14.740;2022-08-21T02:21:51;20.30;99.90
20520;DHT22;53432;51.952;14.740;2022-08-21T02:24:18;20.30;99.90
20520;DHT22;53432;51.952;14.740;2022-08-21T02:26:45;20.30;99.90
20520;DHT22;53432;51.952;14.740;2022-08-21T02:29:13;20.30;99.90
20520;DHT22;53432;51.952;14.740;2022-08-21T02:31:42;20.20;99.90
20520;DHT22;53432;51.952;14.740;2022-08-21T02:34:09;20.20;99.90
20520;DHT22;53432;51.952;14.740;2022-08-21T02:36:36;20.30;99.90
20520;DHT22;53432;51.952;14.740;2022-08-21T02:39:04;20.30;99.90
20520;DHT22;53432;51.952;14.740;2022-08-21T02:41:31;20.30;99.90
20520;DHT22;53432;51.952;14.740;2022-08-21T02:43:58;20.30;99.90
20520;DHT22;53432;51.952;14.740;2022-08-21T02:46:26;20.30;99.90
20520;DHT22;53432;51.952;14.740;2022-08-21T02:48:55;20.30;99.90
20520;DHT22;53432;51.952;14.740;2022-08-21T02:51:22;20.30;99.90
20520;DHT22;53432;51.952;14.740;2022-08-21T02:53:51;20.30;99.90
20520;DHT22;53432;51.952;14.740;2022-08-21T02:56:20;20.30;99.90
20520;DHT22;53432;51.952;14.740;2022-08-21T02:58:50;20.30;99.90
20520;DHT22;53432;51.952;14.740;2022-08-21T03:01:18;20.30;99.90
20520;DHT22;53432;51.952;14.740;2022-08-21T03:03:46;20.30;99.90
20520;DHT22;53432;51.952;14.740;2022-08-21T03:06:19;20.30;99.90
20520;DHT22;53432;51.952;14.740;2022-08-21T03:08:47;20.20;99.90
20520;DHT22;53432;51.952;14.740;2022-08-21T03:11:15;20.20;99.90
20520;DHT22;53432;51.952;14.740;2022-08-21T03:13:43;20.30;99.90
20520;DHT22;53432;51.952;14.740;2022-08-21T03:16:10;20.20;99.90
20520;DHT22;53432;51.952;14.740;2022-08-21T03:18:38;20.20;99.90
20520;DHT22;53432;51.952;14.740;2022-08-21T03:21:06;20.10;99.90
20520;DHT22;53432;51.952;14.740;2022-08-21T03:23:34;20.10;99.90
20520;DHT22;53432;51.952;14.740;2022-08-21T03:26:02;20.10;99.90
20520;DHT22;53432;51.952;14.740;2022-08-21T03:28:30;20.10;99.90
20520;DHT22;53432;51.952;14.740;2022-08-21T03:30:57;20.10;99.90
20520;DHT22;53432;51.952;14.740;2022-08-21T03:33:25;20.10;99.90
20520;DHT22;53432;51.952;14.740;2022-08-21T03:35:58;20.10;99.90
20520;DHT22;53432;51.952;14.740;2022-08-21T03:38:27;20.10;99.90
20520;DHT22;53432;51.952;14.740;2022-08-21T03:40:56;20.00;99.90
20520;DHT22;53432;51.952;14.740;2022-08-21T03:43:24;20.00;99.90
20520;DHT22;53432;51.952;14.740;2022-08-21T03:45:52;20.00;99.90
20520;DHT22;53432;51.952;14.740;2022-08-21T03:48:20;20.10;99.90
20520;DHT22;53432;51.952;14.740;2022-08-21T03:50:47;20.10;99.90
20520;DHT22;53432;51.952;14.740;2022-08-21T03:53:15;20.00;99.90
20520;DHT22;53432;51.952;14.740;2022-08-21T03:55:44;20.00;99.90
20520;DHT22;53432;51.952;14.740;2022-08-21T03:58:14;20.00;99.90
20520;DHT22;53432;51.952;14.740;2022-08-21T04:00:41;20.00;99.90
20520;DHT22;53432;51.952;14.740;2022-08-21T04:03:09;19.90;99.90
20520;DHT22;53432;51.952;14.740;2022-08-21T04:05:36;19.90;99.90
20520;DHT22;53432;51.952;14.740;2022-08-21T04:08:05;19.90;99.90
20520;DHT22;53432;51.952;14.740;2022-08-21T04:10:50;19.90;99.90
20520;DHT22;53432;51.952;14.740;2022-08-21T04:13:20;19.90;99.90
20520;DHT22;53432;51.952;14.740;2022-08-21T04:15:47;19.80;99.90
20520;DHT22;53432;51.952;14.740;2022-08-21T04:18:15;19.80;99.90
20520;DHT22;53432;51.952;14.740;2022-08-21T04:20:44;19.80;99.90
20520;DHT22;53432;51.952;14.740;2022-08-21T04:23:11;19.80;99.90
20520;DHT22;53432;51.952;14.740;2022-08-21T04:25:39;19.80;99.90
20520;DHT22;53432;51.952;14.740;2022-08-21T04:28:06;19.70;99.90
20520;DHT22;53432;51.952;14.740;2022-08-21T04:30:35;19.70;99.90
20520;DHT22;53432;51.952;14.740;2022-08-21T04:33:02;19.70;99.90
20520;DHT22;53432;51.952;14.740;2022-08-21T04:35:30;19.60;99.90
20520;DHT22;53432;51.952;14.740;2022-08-21T04:37:58;19.70;99.90
20520;DHT22;53432;51.952;14.740;2022-08-21T04:40:27;19.70;99.90
20520;DHT22;53432;51.952;14.740;2022-08-21T04:42:56;19.70;99.90
20520;DHT22;53432;51.952;14.740;2022-08-21T04:45:27;19.60;99.90
20520;DHT22;53432;51.952;14.740;2022-08-21T04:47:57;19.60;99.90
20520;DHT22;53432;51.952;14.740;2022-08-21T04:50:29;19.50;99.90
20520;DHT22;53432;51.952;14.740;2022-08-21T04:52:57;19.50;99.90
20520;DHT22;53432;51.952;14.740;2022-08-21T04:55:25;19.50;99.90
20520;DHT22;53432;51.952;14.740;2022-08-21T04:57:54;19.50;99.90
20520;DHT22;53432;51.952;14.740;2022-08-21T05:12:37;19.50;99.90
20520;DHT22;53432;51.952;14.740;2022-08-21T05:15:06;19.70;99.90
20520;DHT22;53432;51.952;14.740;2022-08-21T05:17:34;19.60;99.90
20520;DHT22;53432;51.952;14.740;2022-08-21T05:20:01;19.60;99.90
20520;DHT22;53432;51.952;14.740;2022-08-21T05:22:29;19.60;99.90
20520;DHT22;53432;51.952;14.740;2022-08-21T05:24:57;19.50;99.90
20520;DHT22;53432;51.952;14.740;2022-08-21T05:27:24;19.50;99.90
20520;DHT22;53432;51.952;14.740;2022-08-21T05:29:53;19.50;99.90
20520;DHT22;53432;51.952;14.740;2022-08-21T05:32:20;19.50;99.90
20520;DHT22;53432;51.952;14.740;2022-08-21T05:34:48;19.50;99.90
20520;DHT22;53432;51.952;14.740;2022-08-21T05:37:16;19.40;99.90
20520;DHT22;53432;51.952;14.740;2022-08-21T05:39:43;19.50;99.90
20520;DHT22;53432;51.952;14.740;2022-08-21T05:42:11;19.50;99.90
20520;DHT22;53432;51.952;14.740;2022-08-21T05:44:38;19.50;99.90
20520;DHT22;53432;51.952;14.740;2022-08-21T05:47:09;19.40;99.90
20520;DHT22;53432;51.952;14.740;2022-08-21T05:49:36;19.40;99.90
20520;DHT22;53432;51.952;14.740;2022-08-21T05:52:04;19.40;99.90
20520;DHT22;53432;51.952;14.740;2022-08-21T05:54:32;19.40;99.90
20520;DHT22;53432;51.952;14.740;2022-08-21T05:56:59;19.40;99.90
20520;DHT22;53432;51.952;14.740;2022-08-21T05:59:26;19.50;99.90
20520;DHT22;53432;51.952;14.740;2022-08-21T06:01:54;19.50;99.90
20520;DHT22;53432;51.952;14.740;2022-08-21T06:04:23;19.50;99.90
20520;DHT22;53432;51.952;14.740;2022-08-21T06:06:50;19.60;99.90
20520;DHT22;53432;51.952;14.740;2022-08-21T06:09:18;19.60;99.90
20520;DHT22;53432;51.952;14.740;2022-08-21T06:11:45;19.50;99.90
20520;DHT22;53432;51.952;14.740;2022-08-21T06:14:14;19.60;99.90
20520;DHT22;53432;51.952;14.740;2022-08-21T06:16:42;19.60;99.90
20520;DHT22;53432;51.952;14.740;2022-08-21T06:19:09;19.60;99.90
20520;DHT22;53432;51.952;14.740;2022-08-21T06:21:38;19.50;99.90
20520;DHT22;53432;51.952;14.740;2022-08-21T06:24:05;19.60;99.90
20520;DHT22;53432;51.952;14.740;2022-08-21T06:26:33;19.60;99.90
20520;DHT22;53432;51.952;14.740;2022-08-21T06:29:00;19.60;99.90
20520;DHT22;53432;51.952;14.740;2022-08-21T06:31:28;19.50;99.90
20520;DHT22;53432;51.952;14.740;2022-08-21T06:33:56;19.50;99.90
20520;DHT22;53432;51.952;14.740;2022-08-21T06:36:24;19.60;99.90
20520;DHT22;53432;51.952;14.740;2022-08-21T06:38:53;19.60;99.90
20520;DHT22;53432;51.952;14.740;2022-08-21T06:41:20;19.60;99.90
20520;DHT22;53432;51.952;14.740;2022-08-21T06:43:48;19.50;99.90
20520;DHT22;53432;51.952;14.740;2022-08-21T06:46:15;19.50;99.90
20520;DHT22;53432;51.952;14.740;2022-08-21T06:48:42;19.60;99.90
20520;DHT22;53432;51.952;14.740;2022-08-21T06:51:11;19.60;99.90
20520;DHT22;53432;51.952;14.740;2022-08-21T06:53:38;19.70;99.90
20520;DHT22;53432;51.952;14.740;2022-08-21T06:56:07;19.60;99.90
20520;DHT22;53432;51.952;14.740;2022-08-21T06:58:35;19.70;99.90
20520;DHT22;53432;51.952;14.740;2022-08-21T07:01:03;19.70;99.90
20520;DHT22;53432;51.952;14.740;2022-08-21T07:03:33;19.70;99.90
20520;DHT22;53432;51.952;14.740;2022-08-21T07:06:00;19.80;99.90
20520;DHT22;53432;51.952;14.740;2022-08-21T07:08:28;19.70;99.90
20520;DHT22;53432;51.952;14.740;2022-08-21T07:10:58;19.80;99.90
20520;DHT22;53432;51.952;14.740;2022-08-21T07:13:27;19.80;99.90
20520;DHT22;53432;51.952;14.740;2022-08-21T07:15:55;19.80;99.90
20520;DHT22;53432;51.952;14.740;2022-08-21T07:18:22;19.80;99.90
20520;DHT22;53432;51.952;14.740;2022-08-21T07:20:50;19.70;99.90
20520;DHT22;53432;51.952;14.740;2022-08-21T07:23:22;19.70;99.90
20520;DHT22;53432;51.952;14.740;2022-08-21T07:25:50;19.70;99.90
20520;DHT22;53432;51.952;14.740;2022-08-21T07:28:17;19.70;99.90
20520;DHT22;53432;51.952;14.740;2022-08-21T07:30:46;19.60;99.90
20520;DHT22;53432;51.952;14.740;2022-08-21T07:33:17;19.60;99.90
20520;DHT22;53432;51.952;14.740;2022-08-21T07:35:44;19.60;99.90
20520;DHT22;53432;51.952;14.740;2022-08-21T07:38:12;19.60;99.90
20520;DHT22;53432;51.952;14.740;2022-08-21T07:40:39;19.60;99.90
20520;DHT22;53432;51.952;14.740;2022-08-21T07:43:06;19.60;99.90
20520;DHT22;53432;51.952;14.740;2022-08-21T07:45:34;19.60;99.90
20520;DHT22;53432;51.952;14.740;2022-08-21T07:48:03;19.60;99.90
20520;DHT22;53432;51.952;14.740;2022-08-21T07:50:31;19.50;99.90
20520;DHT22;53432;51.952;14.740;2022-08-21T07:52:58;19.50;99.90
20520;DHT22;53432;51.952;14.740;2022-08-21T07:55:25;19.50;99.90
20520;DHT22;53432;51.952;14.740;2022-08-21T07:57:53;19.50;99.90
20520;DHT22;53432;51.952;14.740;2022-08-21T08:00:22;19.50;99.90
20520;DHT22;53432;51.952;14.740;2022-08-21T08:02:52;19.50;99.90
20520;DHT22;53432;51.952;14.740;2022-08-21T08:05:23;19.60;99.90
20520;DHT22;53432;51.952;14.740;2022-08-21T08:07:51;19.60;99.90
20520;DHT22;53432;51.952;14.740;2022-08-21T08:10:19;19.60;99.90
20520;DHT22;53432;51.952;14.740;2022-08-21T08:12:47;19.60;99.90
20520;DHT22;53432;51.952;14.740;2022-08-21T08:15:19;19.70;99.90
20520;DHT22;53432;51.952;14.740;2022-08-21T08:17:47;19.60;99.90
20520;DHT22;53432;51.952;14.740;2022-08-21T08:20:16;19.60;99.90
20520;DHT22;53432;51.952;14.740;2022-08-21T08:22:47;19.60;99.90
20520;DHT22;53432;51.952;14.740;2022-08-21T08:25:14;19.70;99.90
20520;DHT22;53432;51.952;14.740;2022-08-21T08:27:42;19.70;99.90
20520;DHT22;53432;51.952;14.740;2022-08-21T08:30:12;19.70;99.90
20520;DHT22;53432;51.952;14.740;2022-08-21T08:32:40;19.80;99.90
20520;DHT22;53432;51.952;14.740;2022-08-21T08:35:08;19.80;99.90
20520;DHT22;53432;51.952;14.740;2022-08-21T08:37:36;19.80;99.90
20520;DHT22;53432;51.952;14.740;2022-08-21T08:40:11;19.80;99.90
20520;DHT22;53432;51.952;14.740;2022-08-21T08:42:39;19.90;99.90
20520;DHT22;53432;51.952;14.740;2022-08-21T08:45:09;19.80;99.90
20520;DHT22;53432;51.952;14.740;2022-08-21T08:47:42;19.80;99.90
20520;DHT22;53432;51.952;14.740;2022-08-21T08:50:13;19.80;99.90
20520;DHT22;53432;51.952;14.740;2022-08-21T08:52:47;19.80;99.90
20520;DHT22;53432;51.952;14.740;2022-08-21T08:55:18;19.80;99.90
20520;DHT22;53432;51.952;14.740;2022-08-21T08:57:48;19.80;99.90
20520;DHT22;53432;51.952;14.740;2022-08-21T09:00:18;19.90;99.90
20520;DHT22;53432;51.952;14.740;2022-08-21T09:02:46;19.90;99.90
20520;DHT22;53432;51.952;14.740;2022-08-21T09:05:22;19.90;99.90
20520;DHT22;53432;51.952;14.740;2022-08-21T09:08:06;20.00;99.90
20520;DHT22;53432;51.952;14.740;2022-08-21T09:10:49;20.00;99.90
20520;DHT22;53432;51.952;14.740;2022-08-21T09:13:23;20.00;99.90
20520;DHT22;53432;51.952;14.740;2022-08-21T09:15:58;20.00;99.90
20520;DHT22;53432;51.952;14.740;2022-08-21T09:18:36;20.00;99.90
20520;DHT22;53432;51.952;14.740;2022-08-21T09:21:16;20.00;99.90
20520;DHT22;53432;51.952;14.740;2022-08-21T09:23:56;20.00;99.90
20520;DHT22;53432;51.952;14.740;2022-08-21T09:26:30;20.00;99.90
20520;DHT22;53432;51.952;14.740;2022-08-21T09:28:59;20.00;99.90
20520;DHT22;53432;51.952;14.740;2022-08-21T09:31:29;20.00;99.90
20520;DHT22;53432;51.952;14.740;2022-08-21T09:34:01;20.00;99.90
20520;DHT22;53432;51.952;14.740;2022-08-21T09:36:38;20.00;99.90
20520;DHT22;53432;51.952;14.740;2022-08-21T09:39:07;20.00;99.90
20520;DHT22;53432;51.952;14.740;2022-08-21T09:41:37;19.90;99.90
20520;DHT22;53432;51.952;14.740;2022-08-21T09:44:07;19.90;99.90
20520;DHT22;53432;51.952;14.740;2022-08-21T09:46:34;19.90;99.90
20520;DHT22;53432;51.952;14.740;2022-08-21T09:49:03;19.90;99.90
20520;DHT22;53432;51.952;14.740;2022-08-21T09:51:33;20.00;99.90
20520;DHT22;53432;51.952;14.740;2022-08-21T09:54:14;19.90;99.90
20520;DHT22;53432;51.952;14.740;2022-08-21T09:56:56;20.00;99.90
20520;DHT22;53432;51.952;14.740;2022-08-21T09:59:42;20.00;99.90
20520;DHT22;53432;51.952;14.740;2022-08-21T10:02:23;20.10;99.90
20520;DHT22;53432;51.952;14.740;2022-08-21T10:04:52;20.10;99.90
20520;DHT22;53432;51.952;14.740;2022-08-21T10:07:22;20.00;99.90
20520;DHT22;53432;51.952;14.740;2022-08-21T10:09:59;20.00;99.90
20520;DHT22;53432;51.952;14.740;2022-08-21T10:12:35;20.10;99.90
20520;DHT22;53432;51.952;14.740;2022-08-21T10:15:09;20.10;99.90
20520;DHT22;53432;51.952;14.740;2022-08-21T10:17:45;20.20;99.90
20520;DHT22;53432;51.952;14.740;2022-08-21T10:20:18;20.20;99.90
20520;DHT22;53432;51.952;14.740;2022-08-21T10:22:53;20.20;99.90
20520;DHT22;53432;51.952;14.740;2022-08-21T10:25:28;20.30;99.90
20520;DHT22;53432;51.952;14.740;2022-08-21T10:28:07;20.40;99.90
20520;DHT22;53432;51.952;14.740;2022-08-21T10:30:41;20.30;99.90
20520;DHT22;53432;51.952;14.740;2022-08-21T10:33:19;20.30;99.90
20520;DHT22;53432;51.952;14.740;2022-08-21T10:35:55;20.40;99.90
20520;DHT22;53432;51.952;14.740;2022-08-21T10:38:55;20.40;99.90
20520;DHT22;53432;51.952;14.740;2022-08-21T10:41:32;20.50;99.90
20520;DHT22;53432;51.952;14.740;2022-08-21T10:44:12;20.50;99.90
20520;DHT22;53432;51.952;14.740;2022-08-21T10:46:47;20.60;99.90
20520;DHT22;53432;51.952;14.740;2022-08-21T10:49:25;20.70;99.90
20520;DHT22;53432;51.952;14.740;2022-08-21T10:52:02;20.80;99.90
20520;DHT22;53432;51.952;14.740;2022-08-21T10:54:37;20.80;99.90
20520;DHT22;53432;51.952;14.740;2022-08-21T10:57:27;20.90;99.90
20520;DHT22;53432;51.952;14.740;2022-08-21T11:00:03;20.90;99.90
20520;DHT22;53432;51.952;14.740;2022-08-21T11:02:37;20.90;99.90
20520;DHT22;53432;51.952;14.740;2022-08-21T11:05:11;21.00;99.90
20520;DHT22;53432;51.952;14.740;2022-08-21T11:07:45;21.10;99.90
20520;DHT22;53432;51.952;14.740;2022-08-21T11:10:17;21.10;99.90
20520;DHT22;53432;51.952;14.740;2022-08-21T11:12:48;21.20;99.90
20520;DHT22;53432;51.952;14.740;2022-08-21T11:15:27;21.30;99.90
20520;DHT22;53432;51.952;14.740;2022-08-21T11:18:10;21.30;99.90
20520;DHT22;53432;51.952;14.740;2022-08-21T11:20:45;21.30;99.90
20520;DHT22;53432;51.952;14.740;2022-08-21T11:23:17;21.40;99.90
20520;DHT22;53432;51.952;14.740;2022-08-21T11:25:49;21.50;99.90
20520;DHT22;53432;51.952;14.740;2022-08-21T11:28:23;21.50;99.90
20520;DHT22;53432;51.952;14.740;2022-08-21T11:31:00;21.60;99.90
20520;DHT22;53432;51.952;14.740;2022-08-21T11:33:44;21.80;99.90
20520;DHT22;53432;51.952;14.740;2022-08-21T11:36:22;21.90;99.90
20520;DHT22;53432;51.952;14.740;2022-08-21T11:38:57;22.00;99.90
20520;DHT22;53432;51.952;14.740;2022-08-21T11:41:30;22.10;99.90
20520;DHT22;53432;51.952;14.740;2022-08-21T11:44:06;22.20;99.90
20520;DHT22;53432;51.952;14.740;2022-08-21T11:46:41;22.20;99.90
20520;DHT22;53432;51.952;14.740;2022-08-21T11:49:32;22.20;99.90
20520;DHT22;53432;51.952;14.740;2022-08-21T11:52:15;22.30;99.90
20520;DHT22;53432;51.952;14.740;2022-08-21T11:54:46;22.20;99.90
20520;DHT22;53432;51.952;14.740;2022-08-21T11:57:19;22.30;99.90
20520;DHT22;53432;51.952;14.740;2022-08-21T12:00:03;22.40;99.90
20520;DHT22;53432;51.952;14.740;2022-08-21T12:02:38;22.40;99.90
20520;DHT22;53432;51.952;14.740;2022-08-21T12:05:09;22.50;99.90
20520;DHT22;53432;51.952;14.740;2022-08-21T12:07:40;22.50;99.90
20520;DHT22;53432;51.952;14.740;2022-08-21T12:10:11;22.50;99.90
20520;DHT22;53432;51.952;14.740;2022-08-21T12:12:40;22.50;99.90
20520;DHT22;53432;51.952;14.740;2022-08-21T12:15:25;22.60;99.90
20520;DHT22;53432;51.952;14.740;2022-08-21T12:17:58;22.60;99.90
20520;DHT22;53432;51.952;14.740;2022-08-21T12:20:35;22.70;99.90
20520;DHT22;53432;51.952;14.740;2022-08-21T12:23:12;22.80;99.90
20520;DHT22;53432;51.952;14.740;2022-08-21T12:25:44;22.90;99.90
20520;DHT22;53432;51.952;14.740;2022-08-21T12:28:14;22.90;99.90
20520;DHT22;53432;51.952;14.740;2022-08-21T12:30:44;22.90;99.90
20520;DHT22;53432;51.952;14.740;2022-08-21T12:33:23;23.00;99.90
20520;DHT22;53432;51.952;14.740;2022-08-21T12:35:54;23.10;99.90
20520;DHT22;53432;51.952;14.740;2022-08-21T12:38:31;23.20;99.90
20520;DHT22;53432;51.952;14.740;2022-08-21T12:41:01;23.10;99.90
20520;DHT22;53432;51.952;14.740;2022-08-21T12:43:34;23.20;99.90
20520;DHT22;53432;51.952;14.740;2022-08-21T12:46:03;23.30;99.90
20520;DHT22;53432;51.952;14.740;2022-08-21T12:48:39;23.40;99.90
20520;DHT22;53432;51.952;14.740;2022-08-21T12:51:13;23.40;99.90
20520;DHT22;53432;51.952;14.740;2022-08-21T12:53:45;23.50;99.90
20520;DHT22;53432;51.952;14.740;2022-08-21T12:56:16;23.60;99.90
20520;DHT22;53432;51.952;14.740;2022-08-21T12:58:47;23.60;99.90
20520;DHT22;53432;51.952;14.740;2022-08-21T13:01:20;23.70;99.90
20520;DHT22;53432;51.952;14.740;2022-08-21T13:03:51;23.80;99.90
20520;DHT22;53432;51.952;14.740;2022-08-21T13:06:20;23.90;99.90
20520;DHT22;53432;51.952;14.740;2022-08-21T13:08:52;24.00;99.90
20520;DHT22;53432;51.952;14.740;2022-08-21T13:11:23;24.10;99.90
20520;DHT22;53432;51.952;14.740;2022-08-21T13:13:53;24.10;99.90
20520;DHT22;53432;51.952;14.740;2022-08-21T13:16:24;24.20;99.90
20520;DHT22;53432;51.952;14.740;2022-08-21T13:18:56;24.30;99.90
20520;DHT22;53432;51.952;14.740;2022-08-21T13:21:28;24.40;99.90
20520;DHT22;53432;51.952;14.740;2022-08-21T13:24:12;24.60;99.90
20520;DHT22;53432;51.952;14.740;2022-08-21T13:26:40;24.60;99.90
20520;DHT22;53432;51.952;14.740;2022-08-21T13:29:09;24.60;99.90
20520;DHT22;53432;51.952;14.740;2022-08-21T13:31:39;24.60;99.90
20520;DHT22;53432;51.952;14.740;2022-08-21T13:34:10;24.60;99.90
20520;DHT22;53432;51.952;14.740;2022-08-21T13:36:42;24.50;99.90
20520;DHT22;53432;51.952;14.740;2022-08-21T13:39:12;24.60;99.90
20520;DHT22;53432;51.952;14.740;2022-08-21T13:41:43;24.70;99.90
20520;DHT22;53432;51.952;14.740;2022-08-21T13:44:16;24.80;99.90
20520;DHT22;53432;51.952;14.740;2022-08-21T13:46:46;24.90;99.90
20520;DHT22;53432;51.952;14.740;2022-08-21T13:49:17;24.90;99.90
20520;DHT22;53432;51.952;14.740;2022-08-21T13:51:45;24.90;99.90
20520;DHT22;53432;51.952;14.740;2022-08-21T13:54:21;24.90;99.90
20520;DHT22;53432;51.952;14.740;2022-08-21T13:56:49;24.80;99.90
20520;DHT22;53432;51.952;14.740;2022-08-21T13:59:25;24.80;99.90
20520;DHT22;53432;51.952;14.740;2022-08-21T14:01:55;24.70;99.90
20520;DHT22;53432;51.952;14.740;2022-08-21T14:04:32;24.70;99.90
20520;DHT22;53432;51.952;14.740;2022-08-21T14:07:00;24.60;99.90
20520;DHT22;53432;51.952;14.740;2022-08-21T14:09:30;24.60;99.90
20520;DHT22;53432;51.952;14.740;2022-08-21T14:12:02;24.50;99.90
20520;DHT22;53432;51.952;14.740;2022-08-21T14:14:38;24.40;99.90
20520;DHT22;53432;51.952;14.740;2022-08-21T14:17:11;24.30;99.90
20520;DHT22;53432;51.952;14.740;2022-08-21T14:19:44;24.20;99.90
20520;DHT22;53432;51.952;14.740;2022-08-21T14:22:29;24.10;99.90
20520;DHT22;53432;51.952;14.740;2022-08-21T14:25:02;24.10;99.90
20520;DHT22;53432;51.952;14.740;2022-08-21T14:27:31;24.20;99.90
20520;DHT22;53432;51.952;14.740;2022-08-21T14:30:02;24.30;99.90
20520;DHT22;53432;51.952;14.740;2022-08-21T14:32:36;24.40;99.90
20520;DHT22;53432;51.952;14.740;2022-08-21T14:35:06;24.40;99.90
20520;DHT22;53432;51.952;14.740;2022-08-21T14:37:34;24.50;99.90
20520;DHT22;53432;51.952;14.740;2022-08-21T14:40:03;24.50;99.90
20520;DHT22;53432;51.952;14.740;2022-08-21T14:42:30;24.60;99.90
20520;DHT22;53432;51.952;14.740;2022-08-21T14:45:02;24.70;99.90
20520;DHT22;53432;51.952;14.740;2022-08-21T14:47:32;24.80;99.90
20520;DHT22;53432;51.952;14.740;2022-08-21T14:49:59;24.90;99.90
20520;DHT22;53432;51.952;14.740;2022-08-21T14:52:28;24.90;99.90
20520;DHT22;53432;51.952;14.740;2022-08-21T14:54:55;25.00;99.90
20520;DHT22;53432;51.952;14.740;2022-08-21T14:57:29;25.00;99.90
20520;DHT22;53432;51.952;14.740;2022-08-21T14:59:57;25.10;99.90
20520;DHT22;53432;51.952;14.740;2022-08-21T15:02:25;25.20;99.90
20520;DHT22;53432;51.952;14.740;2022-08-21T15:04:52;25.30;99.90
20520;DHT22;53432;51.952;14.740;2022-08-21T15:07:20;25.30;99.90
20520;DHT22;53432;51.952;14.740;2022-08-21T15:09:48;25.30;99.90
20520;DHT22;53432;51.952;14.740;2022-08-21T15:12:16;25.30;99.90
20520;DHT22;53432;51.952;14.740;2022-08-21T15:14:43;25.30;99.90
20520;DHT22;53432;51.952;14.740;2022-08-21T15:17:11;25.20;99.90
20520;DHT22;53432;51.952;14.740;2022-08-21T15:19:39;25.10;99.90
20520;DHT22;53432;51.952;14.740;2022-08-21T15:22:07;25.00;99.90
20520;DHT22;53432;51.952;14.740;2022-08-21T15:24:34;24.90;99.90
20520;DHT22;53432;51.952;14.740;2022-08-21T15:27:04;24.80;99.90
20520;DHT22;53432;51.952;14.740;2022-08-21T15:29:33;24.70;99.90
20520;DHT22;53432;51.952;14.740;2022-08-21T15:32:02;24.60;99.90
20520;DHT22;53432;51.952;14.740;2022-08-21T15:34:30;24.60;99.90
20520;DHT22;53432;51.952;14.740;2022-08-21T15:36:58;24.60;99.90
20520;DHT22;53432;51.952;14.740;2022-08-21T15:39:27;24.50;99.90
20520;DHT22;53432;51.952;14.740;2022-08-21T15:41:54;24.60;99.90
20520;DHT22;53432;51.952;14.740;2022-08-21T15:44:25;24.90;99.90
20520;DHT22;53432;51.952;14.740;2022-08-21T15:46:53;25.30;99.90